createdAt,value
2022-08-03T00:00:24.292Z,24.94
2022-08-03T00:02:50.921Z,24.91
2022-08-03T00:05:17.611Z,24.86
2022-08-03T00:07:43.992Z,24.81
2022-08-03T00:10:12.484Z,24.78
2022-08-03T00:12:39.067Z,24.73
2022-08-03T00:15:11.514Z,24.68
2022-08-03T00:17:52.472Z,24.67
2022-08-03T00:20:21.377Z,24.61
2022-08-03T00:22:48.005Z,24.58
2022-08-03T00:25:14.592Z,24.55
2022-08-03T00:27:41.061Z,24.51
2022-08-03T00:30:08.295Z,24.48
2022-08-03T00:32:34.680Z,24.46
2022-08-03T00:35:01.137Z,24.41
2022-08-03T00:37:40.814Z,24.38
2022-08-03T00:40:12.865Z,24.35
2022-08-03T00:42:54.514Z,24.31
2022-08-03T00:45:22.998Z,24.29
2022-08-03T00:47:50.268Z,24.26
2022-08-03T00:50:18.854Z,24.23
2022-08-03T00:52:46.691Z,24.21
2022-08-03T00:55:13.314Z,24.20
2022-08-03T00:57:40.272Z,24.18
2022-08-03T01:00:08.652Z,24.15
2022-08-03T01:02:35.751Z,24.14
2022-08-03T01:05:02.151Z,24.11
2022-08-03T01:07:44.866Z,24.08
2022-08-03T01:10:32.076Z,24.06
2022-08-03T01:14:03.716Z,24.05
2022-08-03T01:16:15.701Z,24.03
2022-08-03T01:18:52.522Z,24.00
2022-08-03T01:21:59.636Z,23.95
2022-08-03T01:24:52.911Z,23.93
2022-08-03T01:27:23.068Z,23.90
2022-08-03T01:30:01.547Z,23.86
2022-08-03T01:32:58.849Z,23.84
2022-08-03T01:35:29.228Z,23.82
2022-08-03T01:38:03.332Z,23.79
2022-08-03T01:40:34.237Z,23.78
2022-08-03T01:43:04.261Z,23.76
2022-08-03T01:45:33.986Z,23.73
2022-08-03T01:48:02.421Z,23.73
2022-08-03T01:50:32.300Z,23.74
2022-08-03T01:52:59.665Z,23.73
2022-08-03T01:55:28.205Z,23.71
2022-08-03T01:58:05.518Z,23.68
2022-08-03T02:00:35.373Z,23.65
2022-08-03T02:03:04.794Z,23.63
2022-08-03T02:05:32.313Z,23.61
2022-08-03T02:08:00.661Z,23.57
2022-08-03T02:10:34.278Z,23.54
2022-08-03T02:13:05.037Z,23.51
2022-08-03T02:15:33.803Z,23.49
2022-08-03T02:18:03.111Z,23.47
2022-08-03T02:20:33.062Z,23.44
2022-08-03T02:22:59.544Z,23.41
2022-08-03T02:25:26.156Z,23.38
2022-08-03T02:27:56.512Z,23.33
2022-08-03T02:30:30.924Z,23.30
2022-08-03T02:32:58.438Z,23.29
2022-08-03T02:35:29.381Z,23.26
2022-08-03T02:38:02.225Z,23.22
2022-08-03T02:40:30.085Z,23.20
2022-08-03T02:43:01.240Z,23.17
2022-08-03T02:45:29.616Z,23.14
2022-08-03T02:48:00.067Z,23.12
2022-08-03T02:50:28.017Z,23.09
2022-08-03T02:52:55.987Z,23.06
2022-08-03T02:55:25.839Z,23.06
2022-08-03T02:57:52.962Z,23.03
2022-08-03T03:00:28.059Z,23.02
2022-08-03T03:02:58.424Z,22.98
2022-08-03T03:05:51.816Z,22.96
2022-08-03T03:08:17.732Z,22.94
2022-08-03T03:10:46.140Z,22.91
2022-08-03T03:13:15.060Z,22.88
2022-08-03T03:15:43.363Z,22.87
2022-08-03T03:18:10.703Z,22.86
2022-08-03T03:20:38.953Z,22.84
2022-08-03T03:23:06.042Z,22.82
2022-08-03T03:25:33.247Z,22.82
2022-08-03T03:28:01.010Z,22.80
2022-08-03T03:30:27.924Z,22.80
2022-08-03T03:32:55.057Z,22.81
2022-08-03T03:35:21.890Z,22.81
2022-08-03T03:37:48.442Z,22.82
2022-08-03T03:40:15.004Z,22.81
2022-08-03T03:42:41.901Z,22.85
2022-08-03T03:45:09.077Z,22.86
2022-08-03T03:47:35.910Z,22.84
2022-08-03T03:50:04.140Z,22.85
2022-08-03T03:52:31.748Z,22.86
2022-08-03T03:55:01.035Z,22.88
2022-08-03T03:57:28.540Z,22.90
2022-08-03T03:59:55.137Z,22.90
2022-08-03T04:02:21.756Z,22.87
2022-08-03T04:05:06.933Z,22.88
2022-08-03T04:08:04.030Z,22.86
2022-08-03T04:10:52.236Z,22.85
2022-08-03T04:13:21.635Z,22.84
2022-08-03T04:15:49.111Z,22.82
2022-08-03T04:18:17.305Z,22.82
2022-08-03T04:20:48.729Z,22.81
2022-08-03T04:23:21.008Z,22.80
2022-08-03T04:25:50.440Z,22.81
2022-08-03T04:28:30.468Z,22.82
2022-08-03T04:31:01.204Z,22.87
2022-08-03T04:33:31.271Z,22.88
2022-08-03T04:36:03.419Z,22.87
2022-08-03T04:38:32.721Z,22.88
2022-08-03T04:41:00.950Z,22.88
2022-08-03T04:43:32.691Z,22.90
2022-08-03T04:46:00.114Z,22.90
2022-08-03T04:48:27.303Z,22.90
2022-08-03T04:50:54.476Z,22.91
2022-08-03T04:53:21.218Z,22.93
2022-08-03T04:55:48.167Z,22.95
2022-08-03T04:58:14.582Z,22.95
2022-08-03T05:00:41.025Z,22.95
2022-08-03T05:03:20.037Z,22.99
2022-08-03T05:05:52.149Z,23.01
2022-08-03T05:08:20.552Z,23.04
2022-08-03T05:10:54.739Z,23.09
2022-08-03T05:13:21.370Z,23.09
2022-08-03T05:15:47.837Z,23.11
2022-08-03T05:18:14.575Z,23.12
2022-08-03T05:20:41.484Z,23.15
2022-08-03T05:23:07.931Z,23.15
2022-08-03T05:25:34.528Z,23.17
2022-08-03T05:28:01.409Z,23.20
2022-08-03T05:30:33.220Z,23.22
2022-08-03T05:33:00.451Z,23.25
2022-08-03T05:36:01.413Z,23.25
2022-08-03T05:38:15.319Z,23.29
2022-08-03T05:40:57.477Z,23.29
2022-08-03T05:43:37.161Z,23.36
2022-08-03T05:46:12.858Z,23.38
2022-08-03T05:48:40.267Z,23.42
2022-08-03T05:51:07.719Z,23.46
2022-08-03T05:53:34.764Z,23.50
2022-08-03T05:56:03.573Z,23.58
2022-08-03T05:58:42.621Z,23.66
2022-08-03T06:01:09.168Z,23.72
2022-08-03T06:03:35.694Z,23.77
2022-08-03T06:06:02.295Z,23.83
2022-08-03T06:08:28.812Z,23.87
2022-08-03T06:10:55.311Z,23.92
2022-08-03T06:13:22.002Z,23.94
2022-08-03T06:15:48.632Z,23.98
2022-08-03T06:18:15.098Z,24.04
2022-08-03T06:20:41.494Z,24.07
2022-08-03T06:23:08.160Z,24.11
2022-08-03T06:25:43.012Z,24.14
2022-08-03T06:28:19.139Z,24.18
2022-08-03T06:30:55.592Z,24.24
2022-08-03T06:33:22.150Z,24.27
2022-08-03T06:35:48.653Z,24.32
2022-08-03T06:38:15.127Z,24.34
2022-08-03T06:40:41.968Z,24.40
2022-08-03T06:43:12.519Z,24.48
2022-08-03T06:45:39.424Z,24.53
2022-08-03T06:48:08.382Z,24.57
2022-08-03T06:50:36.319Z,24.59
2022-08-03T06:53:04.379Z,24.67
2022-08-03T06:55:32.239Z,24.75
2022-08-03T06:57:59.947Z,24.79
2022-08-03T07:00:31.219Z,24.85
2022-08-03T07:02:58.371Z,24.93
2022-08-03T07:05:25.693Z,25.02
2022-08-03T07:07:56.534Z,25.03
2022-08-03T07:10:23.423Z,25.06
2022-08-03T07:12:55.566Z,25.17
2022-08-03T07:15:38.397Z,25.28
2022-08-03T07:18:10.067Z,25.42
2022-08-03T07:20:36.656Z,25.43
2022-08-03T07:23:03.345Z,25.52
2022-08-03T07:25:29.878Z,25.68
2022-08-03T07:27:56.374Z,25.77
2022-08-03T07:30:23.421Z,25.80
2022-08-03T07:32:50.649Z,25.89
2022-08-03T07:35:24.421Z,25.94
2022-08-03T07:37:54.217Z,26.02
2022-08-03T07:40:22.426Z,26.20
2022-08-03T07:42:52.123Z,26.26
2022-08-03T07:45:23.172Z,26.43
2022-08-03T07:47:53.145Z,26.55
2022-08-03T07:50:20.573Z,26.60
2022-08-03T07:52:50.773Z,26.65
2022-08-03T07:55:20.218Z,26.71
2022-08-03T07:57:47.002Z,26.81
2022-08-03T08:00:17.178Z,26.83
2022-08-03T08:02:44.281Z,26.92
2022-08-03T08:05:11.257Z,27.10
2022-08-03T08:07:38.924Z,27.15
2022-08-03T08:10:08.143Z,27.29
2022-08-03T08:12:34.736Z,27.36
2022-08-03T08:15:01.940Z,27.43
2022-08-03T08:17:28.506Z,27.54
2022-08-03T08:19:54.964Z,27.63
2022-08-03T08:22:29.786Z,27.71
2022-08-03T08:24:58.251Z,27.69
2022-08-03T08:27:24.764Z,27.78
2022-08-03T08:29:55.147Z,27.86
2022-08-03T08:32:23.415Z,28.02
2022-08-03T08:34:50.092Z,28.09
2022-08-03T08:37:16.800Z,28.13
2022-08-03T08:39:43.239Z,28.12
2022-08-03T08:42:10.207Z,28.13
2022-08-03T08:44:36.743Z,28.15
2022-08-03T08:47:03.912Z,28.21
2022-08-03T08:49:32.883Z,28.36
2022-08-03T08:52:01.637Z,28.41
2022-08-03T08:54:30.955Z,28.43
2022-08-03T08:57:02.215Z,28.43
2022-08-03T08:59:48.394Z,28.40
2022-08-03T09:02:16.569Z,28.42
2022-08-03T09:04:45.484Z,28.47
2022-08-03T09:07:20.045Z,28.48
2022-08-03T09:10:11.182Z,28.51
2022-08-03T09:12:41.982Z,28.59
2022-08-03T09:16:00.671Z,28.73
2022-08-03T09:18:33.019Z,28.92
2022-08-03T09:21:38.051Z,29.08
2022-08-03T09:24:12.991Z,29.24
2022-08-03T09:26:50.248Z,29.27
2022-08-03T09:29:20.550Z,29.15
2022-08-03T09:31:47.292Z,29.09
2022-08-03T09:34:17.995Z,29.10
2022-08-03T09:36:47.063Z,29.03
2022-08-03T09:39:15.588Z,29.04
2022-08-03T09:41:44.556Z,29.09
2022-08-03T09:44:24.367Z,29.06
2022-08-03T09:46:56.528Z,29.14
2022-08-03T09:49:23.811Z,29.21
2022-08-03T09:52:32.008Z,29.30
2022-08-03T09:54:37.194Z,29.32
2022-08-03T09:57:03.732Z,29.29
2022-08-03T09:59:32.063Z,29.32
2022-08-03T10:02:00.404Z,29.44
2022-08-03T10:04:27.719Z,29.48
2022-08-03T10:07:09.312Z,29.59
2022-08-03T10:09:37.440Z,29.73
2022-08-03T10:12:12.208Z,29.82
2022-08-03T10:14:40.514Z,29.73
2022-08-03T10:17:07.079Z,29.71
2022-08-03T10:19:34.014Z,29.77
2022-08-03T10:22:15.839Z,29.91
2022-08-03T10:24:59.220Z,30.10
2022-08-03T10:27:32.042Z,30.24
2022-08-03T10:30:03.671Z,30.64
2022-08-03T10:32:42.383Z,30.97
2022-08-03T10:35:19.550Z,31.07
2022-08-03T10:38:01.808Z,31.44
2022-08-03T10:40:49.602Z,31.63
2022-08-03T10:43:21.648Z,31.80
2022-08-03T10:45:48.989Z,32.06
2022-08-03T10:48:17.848Z,32.57
2022-08-03T10:50:44.956Z,33.05
2022-08-03T10:53:11.672Z,33.70
2022-08-03T10:56:05.629Z,34.98
2022-08-03T10:58:38.187Z,37.28
2022-08-03T11:01:58.962Z,39.04
2022-08-03T11:04:29.222Z,39.60
2022-08-03T11:07:22.823Z,40.19
2022-08-03T11:09:56.489Z,40.82
2022-08-03T11:12:30.393Z,41.20
2022-08-03T11:15:01.219Z,42.40
2022-08-03T11:17:27.949Z,42.32
2022-08-03T11:19:57.785Z,41.47
2022-08-03T11:22:25.748Z,40.70
2022-08-03T11:24:54.291Z,40.97
2022-08-03T11:27:23.236Z,41.80
2022-08-03T11:30:11.266Z,41.88
2022-08-03T11:32:37.609Z,42.36
2022-08-03T11:35:21.643Z,42.48
2022-08-03T11:38:01.508Z,42.29
2022-08-03T11:40:52.904Z,44.41
2022-08-03T11:43:22.671Z,46.55
2022-08-03T11:46:03.694Z,48.36
2022-08-03T11:48:37.368Z,49.64
2022-08-03T11:51:18.763Z,50.36
2022-08-03T11:53:47.718Z,49.72
2022-08-03T11:56:14.252Z,48.97
2022-08-03T11:59:00.985Z,47.15
2022-08-03T12:01:40.353Z,45.00
2022-08-03T12:04:08.011Z,46.59
2022-08-03T12:06:54.419Z,47.13
2022-08-03T12:09:21.442Z,46.37
2022-08-03T12:11:59.824Z,47.36
2022-08-03T12:14:50.625Z,47.99
2022-08-03T12:17:16.203Z,47.77
2022-08-03T12:19:43.798Z,48.12
2022-08-03T12:22:10.229Z,48.45
2022-08-03T12:24:46.806Z,48.17
2022-08-03T12:27:26.422Z,49.11
2022-08-03T12:29:58.965Z,49.71
2022-08-03T12:32:27.170Z,49.72
2022-08-03T12:34:53.657Z,50.23
2022-08-03T12:37:22.777Z,49.62
2022-08-03T12:40:00.429Z,49.63
2022-08-03T12:42:36.544Z,49.63
2022-08-03T12:45:27.380Z,49.93
2022-08-03T12:47:56.626Z,49.22
2022-08-03T12:50:34.236Z,47.31
2022-08-03T12:53:03.878Z,46.32
2022-08-03T12:55:57.802Z,45.20
2022-08-03T12:58:38.132Z,43.52
2022-08-03T13:01:09.133Z,42.24
2022-08-03T13:03:42.276Z,42.38
2022-08-03T13:06:14.649Z,43.11
2022-08-03T13:08:42.782Z,43.62
2022-08-03T13:11:43.481Z,43.29
2022-08-03T13:14:13.607Z,42.48
2022-08-03T13:16:46.410Z,41.51
2022-08-03T13:19:15.687Z,40.66
2022-08-03T13:21:53.523Z,40.05
2022-08-03T13:24:30.418Z,39.31
2022-08-03T13:26:57.774Z,39.12
2022-08-03T13:29:24.202Z,38.98
2022-08-03T13:31:51.448Z,38.80
2022-08-03T13:34:22.965Z,38.49
2022-08-03T13:37:08.413Z,38.00
2022-08-03T13:39:57.598Z,37.81
2022-08-03T13:42:22.852Z,37.68
2022-08-03T13:44:49.341Z,37.36
2022-08-03T13:47:16.249Z,36.81
2022-08-03T13:49:42.889Z,36.58
2022-08-03T13:52:26.000Z,36.47
2022-08-03T13:54:52.466Z,36.44
2022-08-03T13:58:02.873Z,36.18
2022-08-03T14:00:06.593Z,36.01
2022-08-03T14:02:33.105Z,36.05
2022-08-03T14:04:59.587Z,36.07
2022-08-03T14:07:26.166Z,35.86
2022-08-03T14:09:52.753Z,35.58
2022-08-03T14:12:19.161Z,35.64
2022-08-03T14:14:45.725Z,35.60
2022-08-03T14:17:12.972Z,35.45
2022-08-03T14:19:52.443Z,35.54
2022-08-03T14:22:24.293Z,35.64
2022-08-03T14:24:51.001Z,35.68
2022-08-03T14:27:18.088Z,35.71
2022-08-03T14:29:44.688Z,35.73
2022-08-03T14:32:13.550Z,35.65
2022-08-03T14:34:40.868Z,35.73
2022-08-03T14:37:07.559Z,35.79
2022-08-03T14:42:20.699Z,35.95
2022-08-03T14:44:47.578Z,35.91
2022-08-03T14:47:14.721Z,35.75
2022-08-03T14:50:37.374Z,35.75
2022-08-03T14:52:28.150Z,35.70
2022-08-03T14:54:54.615Z,35.66
2022-08-03T14:57:21.563Z,35.63
2022-08-03T14:59:56.235Z,35.67
2022-08-03T15:02:24.527Z,35.75
2022-08-03T15:04:51.681Z,35.72
2022-08-03T15:07:18.586Z,35.68
2022-08-03T15:09:45.140Z,35.68
2022-08-03T15:12:11.870Z,35.56
2022-08-03T15:14:38.307Z,35.26
2022-08-03T15:17:05.406Z,35.07
2022-08-03T15:20:01.682Z,34.94
2022-08-03T15:22:20.466Z,34.67
2022-08-03T15:24:47.530Z,34.45
2022-08-03T15:27:13.942Z,34.29
2022-08-03T15:30:08.093Z,34.27
2022-08-03T15:32:27.221Z,34.15
2022-08-03T15:34:55.301Z,34.04
2022-08-03T15:37:21.831Z,34.10
2022-08-03T15:39:59.862Z,34.23
2022-08-03T15:42:29.185Z,34.28
2022-08-03T15:44:55.910Z,34.28
2022-08-03T15:47:22.653Z,34.22
2022-08-03T15:49:49.414Z,34.20
2022-08-03T15:52:15.979Z,34.11
2022-08-03T15:54:42.426Z,34.01
2022-08-03T15:57:08.873Z,33.76
2022-08-03T15:59:35.301Z,33.60
2022-08-03T16:02:01.893Z,33.63
2022-08-03T16:04:28.614Z,33.69
2022-08-03T16:06:55.050Z,33.75
2022-08-03T16:09:24.279Z,33.80
2022-08-03T16:12:14.417Z,33.88
2022-08-03T16:14:51.869Z,33.85
2022-08-03T16:17:20.346Z,33.89
2022-08-03T16:19:47.102Z,33.84
2022-08-03T16:22:14.450Z,33.87
2022-08-03T16:24:41.245Z,33.88
2022-08-03T16:27:17.632Z,33.83
2022-08-03T16:29:54.880Z,33.77
2022-08-03T16:32:21.375Z,33.75
2022-08-03T16:34:48.131Z,33.69
2022-08-03T16:37:37.527Z,33.71
2022-08-03T16:40:02.677Z,33.68
2022-08-03T16:42:29.377Z,33.70
2022-08-03T16:44:55.857Z,33.73
2022-08-03T16:47:22.947Z,33.78
2022-08-03T16:49:53.101Z,33.79
2022-08-03T16:52:22.869Z,33.74
2022-08-03T16:54:53.224Z,33.64
2022-08-03T16:57:56.280Z,33.44
2022-08-03T17:00:12.534Z,33.39
2022-08-03T17:03:00.626Z,33.36
2022-08-03T17:05:28.888Z,33.32
2022-08-03T17:08:12.708Z,33.25
2022-08-03T17:10:42.347Z,33.21
2022-08-03T17:13:12.985Z,33.16
2022-08-03T17:16:01.550Z,33.17
2022-08-03T17:18:37.673Z,33.16
2022-08-03T17:21:09.459Z,33.18
2022-08-03T17:23:46.326Z,33.10
2022-08-03T17:26:21.182Z,33.09
2022-08-03T17:28:57.904Z,33.06
2022-08-03T17:31:31.153Z,33.07
2022-08-03T17:34:01.193Z,33.06
2022-08-03T17:36:54.021Z,33.00
2022-08-03T17:39:19.321Z,32.93
2022-08-03T17:41:55.392Z,32.88
2022-08-03T17:44:33.202Z,32.80
2022-08-03T17:47:08.729Z,32.73
2022-08-03T17:49:40.097Z,32.69
2022-08-03T17:52:28.577Z,32.64
2022-08-03T17:55:57.093Z,32.58
2022-08-03T17:58:11.569Z,32.52
2022-08-03T18:00:59.497Z,32.47
2022-08-03T18:03:57.820Z,32.39
2022-08-03T18:06:31.187Z,32.32
2022-08-03T18:08:59.957Z,32.24
2022-08-03T18:11:35.687Z,32.21
2022-08-03T18:14:26.961Z,32.11
2022-08-03T18:17:00.509Z,32.07
2022-08-03T18:20:02.903Z,32.01
2022-08-03T18:22:20.994Z,31.96
2022-08-03T18:24:51.998Z,31.91
2022-08-03T18:27:20.526Z,31.85
2022-08-03T18:29:49.380Z,31.80
2022-08-03T18:32:16.886Z,31.75
2022-08-03T18:34:53.116Z,31.70
2022-08-03T18:37:25.182Z,31.65
2022-08-03T18:39:55.439Z,31.60
2022-08-03T18:42:26.270Z,31.54
2022-08-03T18:44:56.211Z,31.49
2022-08-03T18:47:53.149Z,31.41
2022-08-03T18:50:29.378Z,31.37
2022-08-03T18:53:19.783Z,31.30
2022-08-03T18:56:02.391Z,31.24
2022-08-03T18:58:47.740Z,31.14
2022-08-03T19:02:01.045Z,31.06
2022-08-03T19:04:41.423Z,30.96
2022-08-03T19:07:16.586Z,30.92
2022-08-03T19:10:15.763Z,30.83
2022-08-03T19:12:45.474Z,30.80
2022-08-03T19:15:15.731Z,30.72
2022-08-03T19:17:53.159Z,30.65
2022-08-03T19:20:30.723Z,30.61
2022-08-03T19:22:59.101Z,30.57
2022-08-03T19:25:33.359Z,30.51
2022-08-03T19:28:04.205Z,30.45
2022-08-03T19:30:39.028Z,30.39
2022-08-03T19:33:09.159Z,30.33
2022-08-03T19:35:52.159Z,30.27
2022-08-03T19:38:28.238Z,30.23
2022-08-03T19:40:58.121Z,30.15
2022-08-03T19:43:53.836Z,30.10
2022-08-03T19:46:21.875Z,30.05
2022-08-03T19:49:02.956Z,29.97
2022-08-03T19:52:00.839Z,29.92
2022-08-03T19:54:29.656Z,29.87
2022-08-03T19:57:00.235Z,29.82
2022-08-03T19:59:29.407Z,29.76
2022-08-03T20:01:55.780Z,29.71
2022-08-03T20:04:26.334Z,29.65
2022-08-03T20:06:56.942Z,29.61
2022-08-03T20:09:23.882Z,29.56
2022-08-03T20:11:57.197Z,29.52
2022-08-03T20:14:26.621Z,29.47
2022-08-03T20:16:53.552Z,29.44
2022-08-03T20:19:20.159Z,29.40
2022-08-03T20:21:49.879Z,29.35
2022-08-03T20:24:24.216Z,29.32
2022-08-03T20:26:53.549Z,29.28
2022-08-03T20:30:05.329Z,29.24
2022-08-03T20:32:18.681Z,29.22
2022-08-03T20:34:50.973Z,29.18
2022-08-03T20:37:19.551Z,29.15
2022-08-03T20:39:48.201Z,29.11
2022-08-03T20:42:21.112Z,29.07
2022-08-03T20:45:06.196Z,29.06
2022-08-03T20:47:36.100Z,29.01
2022-08-03T20:50:04.416Z,28.98
2022-08-03T20:52:37.120Z,28.94
2022-08-03T20:55:16.837Z,28.93
2022-08-03T20:57:43.518Z,28.90
2022-08-03T21:00:19.464Z,28.88
2022-08-03T21:02:48.945Z,28.83
2022-08-03T21:05:15.499Z,28.79
2022-08-03T21:08:05.189Z,28.73
2022-08-03T21:10:33.832Z,28.73
2022-08-03T21:13:18.244Z,28.68
2022-08-03T21:16:11.482Z,28.63
2022-08-03T21:18:44.450Z,28.59
2022-08-03T21:21:15.256Z,28.53
2022-08-03T21:23:48.576Z,28.51
2022-08-03T21:26:18.034Z,28.49
2022-08-03T21:28:46.971Z,28.47
2022-08-03T21:31:13.881Z,28.45
2022-08-03T21:33:40.979Z,28.41
2022-08-03T21:36:14.411Z,28.36
2022-08-03T21:38:43.776Z,28.33
2022-08-03T21:41:14.078Z,28.31
2022-08-03T21:43:40.591Z,28.27
2022-08-03T21:46:07.830Z,28.26
2022-08-03T21:48:38.447Z,28.26
2022-08-03T21:51:06.809Z,28.22
2022-08-03T21:54:02.612Z,28.19
2022-08-03T21:56:22.488Z,28.19
2022-08-03T21:59:06.051Z,28.12
2022-08-03T22:01:35.581Z,28.11
2022-08-03T22:04:06.930Z,28.07
2022-08-03T22:06:33.933Z,28.03
2022-08-03T22:09:01.087Z,28.00
2022-08-03T22:11:28.674Z,27.96
2022-08-03T22:13:55.269Z,27.93
2022-08-03T22:16:22.098Z,27.88
2022-08-03T22:18:48.706Z,27.85
2022-08-03T22:21:17.036Z,27.82
2022-08-03T22:23:59.013Z,27.80
2022-08-03T22:26:32.480Z,27.79
2022-08-03T22:29:06.854Z,27.77
2022-08-03T22:31:59.017Z,27.71
2022-08-03T22:34:26.404Z,27.70
2022-08-03T22:36:57.195Z,27.69
2022-08-03T22:39:28.388Z,27.66
2022-08-03T22:41:57.762Z,27.64
2022-08-03T22:44:25.496Z,27.62
2022-08-03T22:46:52.279Z,27.58
2022-08-03T22:49:19.493Z,27.55
2022-08-03T22:51:46.043Z,27.53
2022-08-03T22:54:12.560Z,27.52
2022-08-03T22:56:39.158Z,27.49
2022-08-03T22:59:39.932Z,27.46
2022-08-03T23:01:59.911Z,27.41
2022-08-03T23:04:28.477Z,27.36
2022-08-03T23:06:57.653Z,27.31
2022-08-03T23:09:24.597Z,27.25
2022-08-03T23:11:55.184Z,27.23
2022-08-03T23:14:23.161Z,27.22
2022-08-03T23:16:53.340Z,27.22
2022-08-03T23:19:25.549Z,27.22
2022-08-03T23:22:02.944Z,27.20
2022-08-03T23:24:34.032Z,27.17
2022-08-03T23:27:02.967Z,27.15
2022-08-03T23:29:31.461Z,27.13
2022-08-03T23:31:59.529Z,27.11
2022-08-03T23:34:46.741Z,27.07
2022-08-03T23:37:15.329Z,27.03
2022-08-03T23:39:45.053Z,26.99
2022-08-03T23:42:14.904Z,26.98
2022-08-03T23:44:43.740Z,26.97
2022-08-03T23:47:11.319Z,26.97
2022-08-03T23:49:37.941Z,26.96
2022-08-03T23:52:15.555Z,26.94
2022-08-03T23:54:58.619Z,26.91
2022-08-03T23:57:37.782Z,26.92
